sensor_id;sensor_type;location;lat;lon;timestamp;temperature;humidity
1391;DHT22;690;51.454;7.194;2023-07-30T00:01:44;14.70;1.00
1391;DHT22;690;51.454;7.194;2023-07-30T00:04:11;14.60;1.00
1391;DHT22;690;51.454;7.194;2023-07-30T00:06:38;14.60;1.00
1391;DHT22;690;51.454;7.194;2023-07-30T00:09:05;14.50;1.00
1391;DHT22;690;51.454;7.194;2023-07-30T00:11:33;14.50;1.00
1391;DHT22;690;51.454;7.194;2023-07-30T00:14:00;14.40;1.00
1391;DHT22;690;51.454;7.194;2023-07-30T00:16:27;14.40;1.00
1391;DHT22;690;51.454;7.194;2023-07-30T00:18:54;14.40;1.00
1391;DHT22;690;51.454;7.194;2023-07-30T00:21:22;14.40;1.00
1391;DHT22;690;51.454;7.194;2023-07-30T00:23:49;14.30;1.00
1391;DHT22;690;51.454;7.194;2023-07-30T00:26:16;14.30;1.00
1391;DHT22;690;51.454;7.194;2023-07-30T00:28:44;14.30;1.00
1391;DHT22;690;51.454;7.194;2023-07-30T00:31:11;14.30;1.00
1391;DHT22;690;51.454;7.194;2023-07-30T00:33:37;14.30;1.00
1391;DHT22;690;51.454;7.194;2023-07-30T00:36:04;14.30;1.00
1391;DHT22;690;51.454;7.194;2023-07-30T00:38:31;14.20;1.00
1391;DHT22;690;51.454;7.194;2023-07-30T00:40:58;14.20;1.00
1391;DHT22;690;51.454;7.194;2023-07-30T00:43:25;14.10;1.00
1391;DHT22;690;51.454;7.194;2023-07-30T00:45:53;14.10;1.00
1391;DHT22;690;51.454;7.194;2023-07-30T00:48:21;14.00;1.00
1391;DHT22;690;51.454;7.194;2023-07-30T00:50:48;14.00;1.00
1391;DHT22;690;51.454;7.194;2023-07-30T00:53:15;14.00;1.00
1391;DHT22;690;51.454;7.194;2023-07-30T00:55:43;13.90;1.00
1391;DHT22;690;51.454;7.194;2023-07-30T00:58:11;13.90;1.00
1391;DHT22;690;51.454;7.194;2023-07-30T01:00:39;13.80;1.00
1391;DHT22;690;51.454;7.194;2023-07-30T01:03:07;13.90;1.00
1391;DHT22;690;51.454;7.194;2023-07-30T01:05:34;13.80;1.00
1391;DHT22;690;51.454;7.194;2023-07-30T01:08:01;13.80;1.00
1391;DHT22;690;51.454;7.194;2023-07-30T01:10:30;13.70;1.00
1391;DHT22;690;51.454;7.194;2023-07-30T01:12:59;13.70;1.00
1391;DHT22;690;51.454;7.194;2023-07-30T01:15:27;13.70;1.00
1391;DHT22;690;51.454;7.194;2023-07-30T01:17:55;13.70;1.00
1391;DHT22;690;51.454;7.194;2023-07-30T01:20:23;13.60;1.00
1391;DHT22;690;51.454;7.194;2023-07-30T01:22:52;13.60;1.00
1391;DHT22;690;51.454;7.194;2023-07-30T01:25:21;13.60;1.00
1391;DHT22;690;51.454;7.194;2023-07-30T01:27:52;13.50;1.00
1391;DHT22;690;51.454;7.194;2023-07-30T01:30:22;13.50;1.00
1391;DHT22;690;51.454;7.194;2023-07-30T01:32:52;13.40;1.00
1391;DHT22;690;51.454;7.194;2023-07-30T01:35:21;13.40;1.00
1391;DHT22;690;51.454;7.194;2023-07-30T01:37:49;13.30;1.00
1391;DHT22;690;51.454;7.194;2023-07-30T01:40:18;13.30;1.00
1391;DHT22;690;51.454;7.194;2023-07-30T01:42:49;13.20;1.00
1391;DHT22;690;51.454;7.194;2023-07-30T01:45:16;13.20;1.00
1391;DHT22;690;51.454;7.194;2023-07-30T01:47:42;13.20;1.00
1391;DHT22;690;51.454;7.194;2023-07-30T01:50:10;13.10;1.00
1391;DHT22;690;51.454;7.194;2023-07-30T01:52:37;13.10;1.00
1391;DHT22;690;51.454;7.194;2023-07-30T01:55:04;13.10;1.00
1391;DHT22;690;51.454;7.194;2023-07-30T01:57:33;13.10;1.00
1391;DHT22;690;51.454;7.194;2023-07-30T02:00:00;13.10;1.00
1391;DHT22;690;51.454;7.194;2023-07-30T02:02:26;13.10;1.00
1391;DHT22;690;51.454;7.194;2023-07-30T02:04:53;13.10;1.00
1391;DHT22;690;51.454;7.194;2023-07-30T02:07:20;13.10;1.00
1391;DHT22;690;51.454;7.194;2023-07-30T02:09:47;13.00;1.00
1391;DHT22;690;51.454;7.194;2023-07-30T02:12:14;13.00;1.00
1391;DHT22;690;51.454;7.194;2023-07-30T02:14:49;13.00;1.00
1391;DHT22;690;51.454;7.194;2023-07-30T02:17:16;13.00;1.00
1391;DHT22;690;51.454;7.194;2023-07-30T02:19:43;13.00;1.00
1391;DHT22;690;51.454;7.194;2023-07-30T02:22:10;12.90;1.00
1391;DHT22;690;51.454;7.194;2023-07-30T02:24:37;12.90;1.00
1391;DHT22;690;51.454;7.194;2023-07-30T02:27:04;12.90;1.00
1391;DHT22;690;51.454;7.194;2023-07-30T02:29:31;12.90;1.00
1391;DHT22;690;51.454;7.194;2023-07-30T02:31:59;12.90;1.00
1391;DHT22;690;51.454;7.194;2023-07-30T02:34:26;12.80;1.00
1391;DHT22;690;51.454;7.194;2023-07-30T02:36:53;12.80;1.00
1391;DHT22;690;51.454;7.194;2023-07-30T02:39:20;12.80;1.00
1391;DHT22;690;51.454;7.194;2023-07-30T02:41:47;12.80;1.00
1391;DHT22;690;51.454;7.194;2023-07-30T02:44:14;12.70;1.00
1391;DHT22;690;51.454;7.194;2023-07-30T02:46:41;12.70;1.00
1391;DHT22;690;51.454;7.194;2023-07-30T02:49:09;12.70;1.00
1391;DHT22;690;51.454;7.194;2023-07-30T02:51:36;12.70;1.00
1391;DHT22;690;51.454;7.194;2023-07-30T02:54:04;12.70;1.00
1391;DHT22;690;51.454;7.194;2023-07-30T02:56:32;12.70;1.00
1391;DHT22;690;51.454;7.194;2023-07-30T02:58:59;12.70;1.00
1391;DHT22;690;51.454;7.194;2023-07-30T03:01:26;12.70;1.00
1391;DHT22;690;51.454;7.194;2023-07-30T03:03:53;12.60;1.00
1391;DHT22;690;51.454;7.194;2023-07-30T03:06:21;12.60;1.00
1391;DHT22;690;51.454;7.194;2023-07-30T03:08:48;12.60;1.00
1391;DHT22;690;51.454;7.194;2023-07-30T03:11:16;12.60;1.00
1391;DHT22;690;51.454;7.194;2023-07-30T03:13:42;12.50;1.00
1391;DHT22;690;51.454;7.194;2023-07-30T03:16:09;12.50;1.00
1391;DHT22;690;51.454;7.194;2023-07-30T03:18:37;12.50;1.00
1391;DHT22;690;51.454;7.194;2023-07-30T03:21:04;12.50;1.00
1391;DHT22;690;51.454;7.194;2023-07-30T03:23:32;12.50;1.00
1391;DHT22;690;51.454;7.194;2023-07-30T03:26:00;12.40;1.00
1391;DHT22;690;51.454;7.194;2023-07-30T03:28:26;12.40;1.00
1391;DHT22;690;51.454;7.194;2023-07-30T03:30:53;12.40;1.00
1391;DHT22;690;51.454;7.194;2023-07-30T03:33:20;12.40;1.00
1391;DHT22;690;51.454;7.194;2023-07-30T03:35:47;12.30;1.00
1391;DHT22;690;51.454;7.194;2023-07-30T03:38:14;12.30;1.00
1391;DHT22;690;51.454;7.194;2023-07-30T03:40:43;12.30;1.00
1391;DHT22;690;51.454;7.194;2023-07-30T03:43:09;12.30;1.00
1391;DHT22;690;51.454;7.194;2023-07-30T03:45:36;12.30;1.00
1391;DHT22;690;51.454;7.194;2023-07-30T03:48:03;12.20;1.00
1391;DHT22;690;51.454;7.194;2023-07-30T03:50:30;12.30;1.00
1391;DHT22;690;51.454;7.194;2023-07-30T03:52:57;12.30;1.00
1391;DHT22;690;51.454;7.194;2023-07-30T03:55:24;12.30;1.00
1391;DHT22;690;51.454;7.194;2023-07-30T03:57:52;12.30;1.00
1391;DHT22;690;51.454;7.194;2023-07-30T04:00:19;12.30;1.00
1391;DHT22;690;51.454;7.194;2023-07-30T04:02:46;12.30;1.00
1391;DHT22;690;51.454;7.194;2023-07-30T04:05:13;12.30;1.00
1391;DHT22;690;51.454;7.194;2023-07-30T04:07:40;12.30;1.00
1391;DHT22;690;51.454;7.194;2023-07-30T04:10:07;12.30;1.00
1391;DHT22;690;51.454;7.194;2023-07-30T04:12:34;12.30;1.00
1391;DHT22;690;51.454;7.194;2023-07-30T04:15:03;12.30;1.00
1391;DHT22;690;51.454;7.194;2023-07-30T04:17:30;12.30;1.00
1391;DHT22;690;51.454;7.194;2023-07-30T04:19:57;12.30;1.00
1391;DHT22;690;51.454;7.194;2023-07-30T04:22:25;12.30;1.00
1391;DHT22;690;51.454;7.194;2023-07-30T04:24:52;12.30;1.00
1391;DHT22;690;51.454;7.194;2023-07-30T04:27:18;12.40;1.00
1391;DHT22;690;51.454;7.194;2023-07-30T04:29:45;12.40;1.00
1391;DHT22;690;51.454;7.194;2023-07-30T04:32:14;12.40;1.00
1391;DHT22;690;51.454;7.194;2023-07-30T04:34:41;12.40;1.00
1391;DHT22;690;51.454;7.194;2023-07-30T04:37:07;12.40;1.00
1391;DHT22;690;51.454;7.194;2023-07-30T04:39:35;12.50;1.00
1391;DHT22;690;51.454;7.194;2023-07-30T04:42:02;12.50;1.00
1391;DHT22;690;51.454;7.194;2023-07-30T04:44:29;12.60;1.00
1391;DHT22;690;51.454;7.194;2023-07-30T04:46:56;12.60;1.00
1391;DHT22;690;51.454;7.194;2023-07-30T04:49:24;12.70;1.00
1391;DHT22;690;51.454;7.194;2023-07-30T04:51:51;12.80;1.00
1391;DHT22;690;51.454;7.194;2023-07-30T04:54:18;12.90;1.00
1391;DHT22;690;51.454;7.194;2023-07-30T04:56:46;13.00;1.00
1391;DHT22;690;51.454;7.194;2023-07-30T04:59:13;13.20;1.00
1391;DHT22;690;51.454;7.194;2023-07-30T05:01:40;13.20;1.00
1391;DHT22;690;51.454;7.194;2023-07-30T05:04:07;13.40;1.00
1391;DHT22;690;51.454;7.194;2023-07-30T05:06:35;13.60;1.00
1391;DHT22;690;51.454;7.194;2023-07-30T05:09:02;13.70;99.90
1391;DHT22;690;51.454;7.194;2023-07-30T05:11:29;13.80;99.90
1391;DHT22;690;51.454;7.194;2023-07-30T05:13:56;13.90;99.90
1391;DHT22;690;51.454;7.194;2023-07-30T05:16:22;14.00;1.00
1391;DHT22;690;51.454;7.194;2023-07-30T05:18:49;14.00;1.00
1391;DHT22;690;51.454;7.194;2023-07-30T05:21:16;14.10;1.00
1391;DHT22;690;51.454;7.194;2023-07-30T05:23:44;14.10;1.00
1391;DHT22;690;51.454;7.194;2023-07-30T05:26:11;14.20;99.90
1391;DHT22;690;51.454;7.194;2023-07-30T05:28:38;14.20;99.90
1391;DHT22;690;51.454;7.194;2023-07-30T05:31:05;14.20;1.00
1391;DHT22;690;51.454;7.194;2023-07-30T05:33:32;14.30;99.90
1391;DHT22;690;51.454;7.194;2023-07-30T05:35:59;14.30;1.00
1391;DHT22;690;51.454;7.194;2023-07-30T05:38:26;14.30;99.90
1391;DHT22;690;51.454;7.194;2023-07-30T05:40:54;14.30;1.00
1391;DHT22;690;51.454;7.194;2023-07-30T05:43:21;14.30;99.90
1391;DHT22;690;51.454;7.194;2023-07-30T05:45:48;14.40;99.90
1391;DHT22;690;51.454;7.194;2023-07-30T05:48:14;14.40;56.80
1391;DHT22;690;51.454;7.194;2023-07-30T05:50:41;14.40;99.90
1391;DHT22;690;51.454;7.194;2023-07-30T05:53:08;14.40;42.20
1391;DHT22;690;51.454;7.194;2023-07-30T05:55:35;14.40;99.90
1391;DHT22;690;51.454;7.194;2023-07-30T05:58:03;14.50;46.80
1391;DHT22;690;51.454;7.194;2023-07-30T06:00:30;14.60;1.00
1391;DHT22;690;51.454;7.194;2023-07-30T06:02:57;14.60;1.00
1391;DHT22;690;51.454;7.194;2023-07-30T06:05:24;14.60;1.00
1391;DHT22;690;51.454;7.194;2023-07-30T06:07:51;14.70;1.00
1391;DHT22;690;51.454;7.194;2023-07-30T06:10:18;14.70;1.00
1391;DHT22;690;51.454;7.194;2023-07-30T06:12:45;14.70;99.90
1391;DHT22;690;51.454;7.194;2023-07-30T06:15:13;14.70;99.90
1391;DHT22;690;51.454;7.194;2023-07-30T06:17:40;14.70;99.90
1391;DHT22;690;51.454;7.194;2023-07-30T06:20:08;14.70;99.90
1391;DHT22;690;51.454;7.194;2023-07-30T06:22:36;14.70;99.90
1391;DHT22;690;51.454;7.194;2023-07-30T06:25:03;14.70;99.90
1391;DHT22;690;51.454;7.194;2023-07-30T06:27:30;14.70;99.90
1391;DHT22;690;51.454;7.194;2023-07-30T06:29:57;14.80;99.90
1391;DHT22;690;51.454;7.194;2023-07-30T06:32:26;14.80;99.90
1391;DHT22;690;51.454;7.194;2023-07-30T06:34:53;14.90;1.00
1391;DHT22;690;51.454;7.194;2023-07-30T06:37:20;14.90;1.00
1391;DHT22;690;51.454;7.194;2023-07-30T06:39:47;14.90;1.00
1391;DHT22;690;51.454;7.194;2023-07-30T06:42:14;14.90;1.00
1391;DHT22;690;51.454;7.194;2023-07-30T06:44:41;14.90;6.50
1391;DHT22;690;51.454;7.194;2023-07-30T06:47:08;15.00;1.00
1391;DHT22;690;51.454;7.194;2023-07-30T06:49:36;15.00;1.00
1391;DHT22;690;51.454;7.194;2023-07-30T06:52:04;15.00;1.00
1391;DHT22;690;51.454;7.194;2023-07-30T06:54:31;14.90;1.00
1391;DHT22;690;51.454;7.194;2023-07-30T06:56:58;14.90;1.00
1391;DHT22;690;51.454;7.194;2023-07-30T06:59:25;14.80;1.00
1391;DHT22;690;51.454;7.194;2023-07-30T07:01:52;14.80;1.00
1391;DHT22;690;51.454;7.194;2023-07-30T07:04:19;14.80;1.00
1391;DHT22;690;51.454;7.194;2023-07-30T07:06:47;14.70;14.80
1391;DHT22;690;51.454;7.194;2023-07-30T07:09:14;14.70;1.00
1391;DHT22;690;51.454;7.194;2023-07-30T07:11:41;14.70;8.10
1391;DHT22;690;51.454;7.194;2023-07-30T07:14:08;14.80;1.00
1391;DHT22;690;51.454;7.194;2023-07-30T07:16:35;14.80;5.50
1391;DHT22;690;51.454;7.194;2023-07-30T07:19:02;14.90;1.00
1391;DHT22;690;51.454;7.194;2023-07-30T07:21:29;15.00;1.00
1391;DHT22;690;51.454;7.194;2023-07-30T07:23:57;15.00;1.00
1391;DHT22;690;51.454;7.194;2023-07-30T07:26:24;15.10;1.00
1391;DHT22;690;51.454;7.194;2023-07-30T07:28:51;15.10;1.00
1391;DHT22;690;51.454;7.194;2023-07-30T07:31:18;15.10;1.00
1391;DHT22;690;51.454;7.194;2023-07-30T07:33:45;15.00;1.00
1391;DHT22;690;51.454;7.194;2023-07-30T07:36:12;15.10;1.00
1391;DHT22;690;51.454;7.194;2023-07-30T07:38:39;15.00;1.00
1391;DHT22;690;51.454;7.194;2023-07-30T07:41:13;15.20;1.00
1391;DHT22;690;51.454;7.194;2023-07-30T07:43:40;15.20;1.00
1391;DHT22;690;51.454;7.194;2023-07-30T07:46:07;15.30;99.90
1391;DHT22;690;51.454;7.194;2023-07-30T07:48:39;15.30;99.90
1391;DHT22;690;51.454;7.194;2023-07-30T07:51:07;15.30;99.90
1391;DHT22;690;51.454;7.194;2023-07-30T07:53:34;15.30;99.90
1391;DHT22;690;51.454;7.194;2023-07-30T07:56:01;15.30;99.90
1391;DHT22;690;51.454;7.194;2023-07-30T07:58:30;15.30;99.90
1391;DHT22;690;51.454;7.194;2023-07-30T08:00:57;15.40;99.90
1391;DHT22;690;51.454;7.194;2023-07-30T08:03:25;15.60;99.90
1391;DHT22;690;51.454;7.194;2023-07-30T08:05:52;15.70;99.90
1391;DHT22;690;51.454;7.194;2023-07-30T08:08:19;15.90;99.90
1391;DHT22;690;51.454;7.194;2023-07-30T08:10:46;16.00;99.90
1391;DHT22;690;51.454;7.194;2023-07-30T08:13:13;16.20;99.90
1391;DHT22;690;51.454;7.194;2023-07-30T08:15:42;16.30;99.90
1391;DHT22;690;51.454;7.194;2023-07-30T08:18:09;16.50;99.90
1391;DHT22;690;51.454;7.194;2023-07-30T08:20:39;16.50;48.90
1391;DHT22;690;51.454;7.194;2023-07-30T08:23:06;16.50;23.00
1391;DHT22;690;51.454;7.194;2023-07-30T08:25:33;16.50;9.10
1391;DHT22;690;51.454;7.194;2023-07-30T08:28:00;16.50;1.00
1391;DHT22;690;51.454;7.194;2023-07-30T08:30:26;16.50;1.00
1391;DHT22;690;51.454;7.194;2023-07-30T08:32:54;16.60;1.00
1391;DHT22;690;51.454;7.194;2023-07-30T08:35:21;16.70;1.00
1391;DHT22;690;51.454;7.194;2023-07-30T08:37:48;16.80;1.00
1391;DHT22;690;51.454;7.194;2023-07-30T08:40:15;16.80;1.00
1391;DHT22;690;51.454;7.194;2023-07-30T08:42:42;16.90;1.00
1391;DHT22;690;51.454;7.194;2023-07-30T08:45:09;16.90;1.00
1391;DHT22;690;51.454;7.194;2023-07-30T08:47:39;17.00;1.00
1391;DHT22;690;51.454;7.194;2023-07-30T08:50:08;17.10;1.00
1391;DHT22;690;51.454;7.194;2023-07-30T08:52:36;17.20;1.00
1391;DHT22;690;51.454;7.194;2023-07-30T08:55:04;17.40;1.00
1391;DHT22;690;51.454;7.194;2023-07-30T08:57:32;17.50;1.00
1391;DHT22;690;51.454;7.194;2023-07-30T09:00:03;17.80;1.00
1391;DHT22;690;51.454;7.194;2023-07-30T09:02:34;18.00;1.00
1391;DHT22;690;51.454;7.194;2023-07-30T09:05:04;18.30;1.00
1391;DHT22;690;51.454;7.194;2023-07-30T09:07:33;18.60;1.00
1391;DHT22;690;51.454;7.194;2023-07-30T09:10:00;18.70;1.00
1391;DHT22;690;51.454;7.194;2023-07-30T09:12:29;18.90;1.00
1391;DHT22;690;51.454;7.194;2023-07-30T09:14:56;19.00;1.00
1391;DHT22;690;51.454;7.194;2023-07-30T09:17:23;18.90;1.00
1391;DHT22;690;51.454;7.194;2023-07-30T09:19:50;18.60;1.00
1391;DHT22;690;51.454;7.194;2023-07-30T09:22:24;18.40;1.00
1391;DHT22;690;51.454;7.194;2023-07-30T09:24:53;18.30;1.00
1391;DHT22;690;51.454;7.194;2023-07-30T09:27:21;18.40;1.00
1391;DHT22;690;51.454;7.194;2023-07-30T09:29:52;18.50;1.00
1391;DHT22;690;51.454;7.194;2023-07-30T09:32:19;18.40;1.00
1391;DHT22;690;51.454;7.194;2023-07-30T09:34:46;18.40;1.00
1391;DHT22;690;51.454;7.194;2023-07-30T09:37:13;18.30;1.00
1391;DHT22;690;51.454;7.194;2023-07-30T09:39:41;18.40;1.00
1391;DHT22;690;51.454;7.194;2023-07-30T09:42:09;18.40;1.00
1391;DHT22;690;51.454;7.194;2023-07-30T09:44:37;18.30;1.00
1391;DHT22;690;51.454;7.194;2023-07-30T09:47:05;18.10;1.00
1391;DHT22;690;51.454;7.194;2023-07-30T09:49:36;18.10;1.00
1391;DHT22;690;51.454;7.194;2023-07-30T09:52:03;18.20;1.00
1391;DHT22;690;51.454;7.194;2023-07-30T09:54:31;18.30;1.00
1391;DHT22;690;51.454;7.194;2023-07-30T09:56:58;18.30;1.00
1391;DHT22;690;51.454;7.194;2023-07-30T09:59:27;18.30;1.00
1391;DHT22;690;51.454;7.194;2023-07-30T10:01:54;18.30;1.00
1391;DHT22;690;51.454;7.194;2023-07-30T10:04:22;18.30;1.00
1391;DHT22;690;51.454;7.194;2023-07-30T10:06:54;18.40;1.00
1391;DHT22;690;51.454;7.194;2023-07-30T10:09:23;18.60;99.90
1391;DHT22;690;51.454;7.194;2023-07-30T10:11:53;19.00;99.90
1391;DHT22;690;51.454;7.194;2023-07-30T10:14:22;19.30;99.90
1391;DHT22;690;51.454;7.194;2023-07-30T10:16:53;19.60;99.90
1391;DHT22;690;51.454;7.194;2023-07-30T10:19:24;19.60;99.90
1391;DHT22;690;51.454;7.194;2023-07-30T10:21:53;19.60;99.90
1391;DHT22;690;51.454;7.194;2023-07-30T10:24:20;19.60;99.90
1391;DHT22;690;51.454;7.194;2023-07-30T10:26:47;19.70;99.90
1391;DHT22;690;51.454;7.194;2023-07-30T10:29:15;19.80;99.90
1391;DHT22;690;51.454;7.194;2023-07-30T10:31:43;19.70;99.90
1391;DHT22;690;51.454;7.194;2023-07-30T10:34:12;19.70;99.90
1391;DHT22;690;51.454;7.194;2023-07-30T10:36:42;19.90;99.90
1391;DHT22;690;51.454;7.194;2023-07-30T10:39:14;20.10;99.90
1391;DHT22;690;51.454;7.194;2023-07-30T10:41:44;20.20;99.90
1391;DHT22;690;51.454;7.194;2023-07-30T10:44:18;20.10;99.90
1391;DHT22;690;51.454;7.194;2023-07-30T10:46:46;20.20;99.90
1391;DHT22;690;51.454;7.194;2023-07-30T10:49:15;20.40;99.90
1391;DHT22;690;51.454;7.194;2023-07-30T10:51:42;20.50;99.90
1391;DHT22;690;51.454;7.194;2023-07-30T10:54:09;20.60;99.90
1391;DHT22;690;51.454;7.194;2023-07-30T10:56:37;20.50;99.90
1391;DHT22;690;51.454;7.194;2023-07-30T10:59:05;20.50;99.90
1391;DHT22;690;51.454;7.194;2023-07-30T11:01:36;20.50;99.90
1391;DHT22;690;51.454;7.194;2023-07-30T11:04:07;20.40;99.90
1391;DHT22;690;51.454;7.194;2023-07-30T11:06:35;20.10;99.90
1391;DHT22;690;51.454;7.194;2023-07-30T11:09:02;19.90;99.90
1391;DHT22;690;51.454;7.194;2023-07-30T11:11:30;19.80;99.90
1391;DHT22;690;51.454;7.194;2023-07-30T11:13:57;19.80;99.90
1391;DHT22;690;51.454;7.194;2023-07-30T11:16:24;19.80;99.90
1391;DHT22;690;51.454;7.194;2023-07-30T11:18:52;19.80;99.90
1391;DHT22;690;51.454;7.194;2023-07-30T11:21:19;20.00;99.90
1391;DHT22;690;51.454;7.194;2023-07-30T11:23:47;20.20;99.90
1391;DHT22;690;51.454;7.194;2023-07-30T11:26:16;20.20;99.90
1391;DHT22;690;51.454;7.194;2023-07-30T11:28:44;20.30;99.90
1391;DHT22;690;51.454;7.194;2023-07-30T11:31:12;20.40;99.90
1391;DHT22;690;51.454;7.194;2023-07-30T11:33:41;20.40;99.90
1391;DHT22;690;51.454;7.194;2023-07-30T11:36:10;20.60;99.90
1391;DHT22;690;51.454;7.194;2023-07-30T11:38:39;20.70;99.90
1391;DHT22;690;51.454;7.194;2023-07-30T11:41:08;20.90;99.90
1391;DHT22;690;51.454;7.194;2023-07-30T11:43:41;21.00;99.90
1391;DHT22;690;51.454;7.194;2023-07-30T11:46:10;21.20;99.90
1391;DHT22;690;51.454;7.194;2023-07-30T11:48:38;21.40;99.90
1391;DHT22;690;51.454;7.194;2023-07-30T11:51:05;21.20;99.90
1391;DHT22;690;51.454;7.194;2023-07-30T11:53:46;21.00;99.90
1391;DHT22;690;51.454;7.194;2023-07-30T11:56:22;20.80;99.90
1391;DHT22;690;51.454;7.194;2023-07-30T11:58:50;20.60;99.90
1391;DHT22;690;51.454;7.194;2023-07-30T12:01:18;20.50;99.90
1391;DHT22;690;51.454;7.194;2023-07-30T12:03:45;20.50;99.90
1391;DHT22;690;51.454;7.194;2023-07-30T12:06:13;20.50;99.90
1391;DHT22;690;51.454;7.194;2023-07-30T12:08:40;20.60;99.90
1391;DHT22;690;51.454;7.194;2023-07-30T12:11:08;20.60;99.90
1391;DHT22;690;51.454;7.194;2023-07-30T12:13:44;20.70;99.90
1391;DHT22;690;51.454;7.194;2023-07-30T12:16:12;20.80;99.90
1391;DHT22;690;51.454;7.194;2023-07-30T12:18:39;20.90;99.90
1391;DHT22;690;51.454;7.194;2023-07-30T12:21:07;21.00;99.90
1391;DHT22;690;51.454;7.194;2023-07-30T12:23:36;21.00;99.90
1391;DHT22;690;51.454;7.194;2023-07-30T12:26:03;21.00;99.90
1391;DHT22;690;51.454;7.194;2023-07-30T12:28:31;21.10;99.90
1391;DHT22;690;51.454;7.194;2023-07-30T12:31:00;21.20;99.90
1391;DHT22;690;51.454;7.194;2023-07-30T12:33:27;21.30;99.90
1391;DHT22;690;51.454;7.194;2023-07-30T12:35:54;21.30;99.90
1391;DHT22;690;51.454;7.194;2023-07-30T12:38:21;21.50;99.90
1391;DHT22;690;51.454;7.194;2023-07-30T12:40:48;21.50;99.90
1391;DHT22;690;51.454;7.194;2023-07-30T12:43:17;21.50;99.90
1391;DHT22;690;51.454;7.194;2023-07-30T12:45:46;21.40;99.90
1391;DHT22;690;51.454;7.194;2023-07-30T12:48:15;21.40;99.90
1391;DHT22;690;51.454;7.194;2023-07-30T12:50:42;21.40;99.90
1391;DHT22;690;51.454;7.194;2023-07-30T12:53:09;21.50;99.90
1391;DHT22;690;51.454;7.194;2023-07-30T12:55:36;21.50;99.90
1391;DHT22;690;51.454;7.194;2023-07-30T12:58:03;21.50;99.90
1391;DHT22;690;51.454;7.194;2023-07-30T13:00:31;21.60;99.90
1391;DHT22;690;51.454;7.194;2023-07-30T13:02:58;21.50;99.90
1391;DHT22;690;51.454;7.194;2023-07-30T13:05:26;21.50;99.90
1391;DHT22;690;51.454;7.194;2023-07-30T13:07:53;21.50;99.90
1391;DHT22;690;51.454;7.194;2023-07-30T13:10:20;21.50;99.90
1391;DHT22;690;51.454;7.194;2023-07-30T13:12:47;21.60;99.90
1391;DHT22;690;51.454;7.194;2023-07-30T13:15:14;21.80;99.90
1391;DHT22;690;51.454;7.194;2023-07-30T13:17:41;22.00;99.90
1391;DHT22;690;51.454;7.194;2023-07-30T13:20:09;22.20;99.90
1391;DHT22;690;51.454;7.194;2023-07-30T13:22:37;22.30;99.90
1391;DHT22;690;51.454;7.194;2023-07-30T13:25:04;22.20;99.90
1391;DHT22;690;51.454;7.194;2023-07-30T13:27:32;22.10;99.90
1391;DHT22;690;51.454;7.194;2023-07-30T13:29:58;22.00;99.90
1391;DHT22;690;51.454;7.194;2023-07-30T13:32:25;21.60;99.90
1391;DHT22;690;51.454;7.194;2023-07-30T13:34:52;21.40;99.90
1391;DHT22;690;51.454;7.194;2023-07-30T13:37:19;21.20;99.90
1391;DHT22;690;51.454;7.194;2023-07-30T13:39:48;21.00;99.90
1391;DHT22;690;51.454;7.194;2023-07-30T13:42:15;20.70;99.90
1391;DHT22;690;51.454;7.194;2023-07-30T13:44:43;20.40;99.90
1391;DHT22;690;51.454;7.194;2023-07-30T13:47:10;20.30;99.90
1391;DHT22;690;51.454;7.194;2023-07-30T13:49:36;20.30;99.90
1391;DHT22;690;51.454;7.194;2023-07-30T13:52:04;20.20;99.90
1391;DHT22;690;51.454;7.194;2023-07-30T13:54:31;20.10;99.90
1391;DHT22;690;51.454;7.194;2023-07-30T13:57:01;20.10;99.90
1391;DHT22;690;51.454;7.194;2023-07-30T13:59:28;20.20;99.90
1391;DHT22;690;51.454;7.194;2023-07-30T14:01:55;20.20;99.90
1391;DHT22;690;51.454;7.194;2023-07-30T14:04:22;20.30;99.90
1391;DHT22;690;51.454;7.194;2023-07-30T14:06:50;20.40;99.90
1391;DHT22;690;51.454;7.194;2023-07-30T14:09:17;20.60;99.90
1391;DHT22;690;51.454;7.194;2023-07-30T14:11:44;21.00;99.90
1391;DHT22;690;51.454;7.194;2023-07-30T14:14:13;21.30;99.90
1391;DHT22;690;51.454;7.194;2023-07-30T14:16:42;21.50;99.90
1391;DHT22;690;51.454;7.194;2023-07-30T14:19:09;21.60;99.90
1391;DHT22;690;51.454;7.194;2023-07-30T14:21:36;21.50;99.90
1391;DHT22;690;51.454;7.194;2023-07-30T14:24:05;21.50;99.90
1391;DHT22;690;51.454;7.194;2023-07-30T14:26:32;21.50;99.90
1391;DHT22;690;51.454;7.194;2023-07-30T14:28:59;21.50;99.90
1391;DHT22;690;51.454;7.194;2023-07-30T14:31:27;21.30;99.90
1391;DHT22;690;51.454;7.194;2023-07-30T14:33:54;20.80;99.90
1391;DHT22;690;51.454;7.194;2023-07-30T14:36:21;20.40;99.90
1391;DHT22;690;51.454;7.194;2023-07-30T14:38:48;20.20;99.90
1391;DHT22;690;51.454;7.194;2023-07-30T14:41:15;19.90;99.90
1391;DHT22;690;51.454;7.194;2023-07-30T14:43:42;19.80;99.90
1391;DHT22;690;51.454;7.194;2023-07-30T14:46:09;19.60;99.90
1391;DHT22;690;51.454;7.194;2023-07-30T14:48:40;19.40;99.90
1391;DHT22;690;51.454;7.194;2023-07-30T14:51:09;19.50;99.90
1391;DHT22;690;51.454;7.194;2023-07-30T14:53:36;19.60;99.90
1391;DHT22;690;51.454;7.194;2023-07-30T14:56:03;19.70;99.90
1391;DHT22;690;51.454;7.194;2023-07-30T14:58:30;19.80;99.90
1391;DHT22;690;51.454;7.194;2023-07-30T15:00:57;20.00;99.90
1391;DHT22;690;51.454;7.194;2023-07-30T15:03:24;20.20;99.90
1391;DHT22;690;51.454;7.194;2023-07-30T15:05:53;20.40;99.90
1391;DHT22;690;51.454;7.194;2023-07-30T15:08:20;20.60;99.90
1391;DHT22;690;51.454;7.194;2023-07-30T15:10:47;20.90;99.90
1391;DHT22;690;51.454;7.194;2023-07-30T15:13:14;20.90;99.90
1391;DHT22;690;51.454;7.194;2023-07-30T15:15:44;20.80;99.90
1391;DHT22;690;51.454;7.194;2023-07-30T15:18:11;20.50;99.90
1391;DHT22;690;51.454;7.194;2023-07-30T15:20:38;20.30;99.90
1391;DHT22;690;51.454;7.194;2023-07-30T15:23:06;20.00;99.90
1391;DHT22;690;51.454;7.194;2023-07-30T15:25:34;19.70;99.90
1391;DHT22;690;51.454;7.194;2023-07-30T15:28:01;19.40;99.90
1391;DHT22;690;51.454;7.194;2023-07-30T15:30:28;19.20;99.90
1391;DHT22;690;51.454;7.194;2023-07-30T15:32:55;19.10;99.90
1391;DHT22;690;51.454;7.194;2023-07-30T15:35:23;19.10;99.90
1391;DHT22;690;51.454;7.194;2023-07-30T15:37:50;19.10;99.90
1391;DHT22;690;51.454;7.194;2023-07-30T15:40:18;19.10;99.90
1391;DHT22;690;51.454;7.194;2023-07-30T15:42:45;19.30;99.90
1391;DHT22;690;51.454;7.194;2023-07-30T15:45:12;19.50;99.90
1391;DHT22;690;51.454;7.194;2023-07-30T15:47:41;19.60;99.90
1391;DHT22;690;51.454;7.194;2023-07-30T15:50:08;19.80;99.90
1391;DHT22;690;51.454;7.194;2023-07-30T15:52:35;20.50;99.90
1391;DHT22;690;51.454;7.194;2023-07-30T15:55:02;21.10;99.90
1391;DHT22;690;51.454;7.194;2023-07-30T15:57:33;21.90;99.90
1391;DHT22;690;51.454;7.194;2023-07-30T16:00:00;22.60;99.90
1391;DHT22;690;51.454;7.194;2023-07-30T16:02:29;22.80;99.90
1391;DHT22;690;51.454;7.194;2023-07-30T16:04:57;22.70;99.90
1391;DHT22;690;51.454;7.194;2023-07-30T16:07:24;22.60;99.90
1391;DHT22;690;51.454;7.194;2023-07-30T16:09:51;22.60;99.90
1391;DHT22;690;51.454;7.194;2023-07-30T16:12:18;22.50;99.90
1391;DHT22;690;51.454;7.194;2023-07-30T16:14:46;22.60;99.90
1391;DHT22;690;51.454;7.194;2023-07-30T16:17:17;22.70;99.90
1391;DHT22;690;51.454;7.194;2023-07-30T16:19:43;22.70;99.90
1391;DHT22;690;51.454;7.194;2023-07-30T16:22:10;22.60;99.90
1391;DHT22;690;51.454;7.194;2023-07-30T16:24:38;22.30;99.90
1391;DHT22;690;51.454;7.194;2023-07-30T16:27:05;22.10;99.90
1391;DHT22;690;51.454;7.194;2023-07-30T16:29:32;21.80;99.90